createdAt,value
2023-05-03T00:02:25.474Z,3.50
2023-05-03T00:04:54.528Z,3.60
2023-05-03T00:07:23.066Z,3.60
2023-05-03T00:09:50.331Z,3.60
2023-05-03T00:12:17.371Z,3.50
2023-05-03T00:14:45.781Z,3.00
2023-05-03T00:17:13.137Z,3.60
2023-05-03T00:19:40.185Z,3.10
2023-05-03T00:22:07.714Z,4.00
2023-05-03T00:24:35.207Z,4.30
2023-05-03T00:27:03.696Z,4.10
2023-05-03T00:29:30.753Z,4.00
2023-05-03T00:31:57.749Z,5.70
2023-05-03T00:34:24.736Z,7.10
2023-05-03T00:36:52.074Z,6.00
2023-05-03T00:39:19.123Z,5.20
2023-05-03T00:41:46.183Z,4.90
2023-05-03T00:44:13.248Z,4.50
2023-05-03T00:46:40.527Z,4.60
2023-05-03T00:49:07.520Z,4.70
2023-05-03T00:51:34.536Z,5.00
2023-05-03T00:54:01.549Z,4.50
2023-05-03T00:56:30.990Z,3.90
2023-05-03T00:58:58.283Z,4.20
2023-05-03T01:01:25.917Z,4.00
2023-05-03T01:03:53.086Z,3.50
2023-05-03T01:06:38.843Z,3.60
2023-05-03T01:09:15.189Z,3.30
2023-05-03T01:11:44.677Z,3.10
2023-05-03T01:14:27.009Z,3.20
2023-05-03T01:16:56.557Z,3.10
2023-05-03T01:19:33.807Z,3.30
2023-05-03T01:22:36.608Z,3.50
2023-05-03T01:25:11.464Z,3.20
2023-05-03T01:27:39.205Z,3.30
2023-05-03T01:30:07.888Z,4.00
2023-05-03T01:32:44.441Z,3.70
2023-05-03T01:35:20.420Z,4.00
2023-05-03T01:37:48.362Z,4.40
2023-05-03T01:40:17.042Z,4.50
2023-05-03T01:42:44.036Z,4.50
2023-05-03T01:45:11.493Z,4.00
2023-05-03T01:47:38.488Z,4.50
2023-05-03T01:50:05.804Z,4.20
2023-05-03T01:52:33.549Z,4.10
2023-05-03T01:55:00.575Z,4.70
2023-05-03T01:57:27.615Z,13.10
2023-05-03T01:59:54.617Z,14.40
2023-05-03T02:02:22.537Z,13.70
2023-05-03T02:04:50.058Z,10.80
2023-05-03T02:07:17.041Z,8.20
2023-05-03T02:09:45.913Z,6.50
2023-05-03T02:12:12.957Z,5.80
2023-05-03T02:14:41.275Z,4.70
2023-05-03T02:17:10.581Z,4.50
2023-05-03T02:19:37.975Z,3.90
2023-05-03T02:22:04.901Z,3.60
2023-05-03T02:24:36.328Z,4.10
2023-05-03T02:27:07.264Z,3.10
2023-05-03T02:29:34.282Z,3.10
2023-05-03T02:32:01.930Z,3.30
2023-05-03T02:34:28.937Z,2.60
2023-05-03T02:36:55.979Z,3.10
2023-05-03T02:39:23.158Z,3.10
2023-05-03T02:41:50.304Z,3.00
2023-05-03T02:44:17.307Z,3.10
2023-05-03T02:46:44.569Z,2.90
2023-05-03T02:49:11.882Z,3.20
2023-05-03T02:51:38.879Z,3.00
2023-05-03T02:54:06.021Z,3.00
2023-05-03T02:56:33.846Z,3.00
2023-05-03T02:59:00.804Z,2.90
2023-05-03T03:01:28.996Z,2.70
2023-05-03T03:03:56.750Z,2.90
2023-05-03T03:06:23.773Z,2.90
2023-05-03T03:08:50.790Z,2.90
2023-05-03T03:11:18.325Z,2.80
2023-05-03T03:13:45.301Z,3.00
2023-05-03T03:16:13.665Z,3.00
2023-05-03T03:18:40.926Z,3.10
2023-05-03T03:21:08.309Z,2.90
2023-05-03T03:23:35.468Z,2.60
2023-05-03T03:26:03.538Z,2.70
2023-05-03T03:28:30.591Z,2.60
2023-05-03T03:30:58.217Z,2.90
2023-05-03T03:33:26.020Z,2.80
2023-05-03T03:35:54.969Z,3.20
2023-05-03T03:38:22.135Z,2.90
2023-05-03T03:40:54.313Z,2.80
2023-05-03T03:43:21.502Z,3.20
2023-05-03T03:45:48.922Z,3.10
2023-05-03T03:48:16.246Z,3.20
2023-05-03T03:50:43.226Z,3.20
2023-05-03T03:53:11.801Z,3.50
2023-05-03T03:55:39.056Z,3.00
2023-05-03T03:58:07.250Z,3.00
2023-05-03T04:00:34.973Z,3.00
2023-05-03T04:03:07.538Z,2.90
2023-05-03T04:05:35.873Z,3.30
2023-05-03T04:08:03.256Z,2.70
2023-05-03T04:10:31.766Z,3.30
2023-05-03T04:12:59.124Z,3.10
2023-05-03T04:15:26.326Z,2.90
2023-05-03T04:17:54.104Z,3.10
2023-05-03T04:20:21.719Z,2.90
2023-05-03T04:22:50.002Z,3.00
2023-05-03T04:25:18.433Z,2.80
2023-05-03T04:27:51.659Z,2.80
2023-05-03T04:30:20.883Z,2.80
2023-05-03T04:32:54.406Z,2.60
2023-05-03T04:35:22.859Z,2.90
2023-05-03T04:37:49.806Z,2.70
2023-05-03T04:40:19.947Z,2.70
2023-05-03T04:42:51.815Z,2.90
2023-05-03T04:45:19.033Z,2.90
2023-05-03T04:47:46.760Z,2.90
2023-05-03T04:50:13.820Z,2.60
2023-05-03T04:52:42.519Z,3.20
2023-05-03T04:55:09.956Z,2.80
2023-05-03T04:57:37.064Z,3.00
2023-05-03T05:00:11.651Z,3.70
2023-05-03T05:02:41.376Z,2.90
2023-05-03T05:05:09.688Z,3.20
2023-05-03T05:07:37.059Z,3.20
2023-05-03T05:10:04.916Z,3.30
2023-05-03T05:12:32.355Z,2.90
2023-05-03T05:15:00.179Z,3.10
2023-05-03T05:17:27.585Z,2.70
2023-05-03T05:19:54.725Z,2.80
2023-05-03T05:22:21.876Z,2.60
2023-05-03T05:24:53.419Z,2.70
2023-05-03T05:27:20.594Z,3.00
2023-05-03T05:29:48.150Z,2.50
2023-05-03T05:32:15.218Z,2.50
2023-05-03T05:34:44.635Z,2.30
2023-05-03T05:37:13.607Z,2.30
2023-05-03T05:39:41.436Z,3.00
2023-05-03T05:42:08.753Z,2.80
2023-05-03T05:44:35.867Z,2.20
2023-05-03T05:47:03.541Z,2.50
2023-05-03T05:49:30.654Z,2.20
2023-05-03T05:51:58.009Z,2.10
2023-05-03T05:54:24.985Z,2.30
2023-05-03T05:56:52.273Z,2.00
2023-05-03T05:59:19.645Z,2.20
2023-05-03T06:01:46.807Z,2.20
2023-05-03T06:04:16.858Z,2.40
2023-05-03T06:06:45.355Z,2.50
2023-05-03T06:09:24.051Z,2.40
2023-05-03T06:11:55.489Z,2.30
2023-05-03T06:14:23.554Z,2.20
2023-05-03T06:16:51.875Z,2.10
2023-05-03T06:19:18.939Z,2.00
2023-05-03T06:21:46.245Z,2.40
2023-05-03T06:24:14.995Z,2.30
2023-05-03T06:26:42.034Z,2.30
2023-05-03T06:29:10.951Z,1.80
2023-05-03T06:31:38.038Z,1.70
2023-05-03T06:34:05.030Z,2.10
2023-05-03T06:36:33.028Z,2.20
2023-05-03T06:39:00.402Z,2.00
2023-05-03T06:41:27.397Z,2.10
2023-05-03T06:43:54.441Z,2.30
2023-05-03T06:46:21.988Z,3.00
2023-05-03T06:48:49.134Z,2.10
2023-05-03T06:51:16.200Z,2.70
2023-05-03T06:53:43.250Z,2.20
2023-05-03T06:56:10.224Z,1.90
2023-05-03T06:58:37.393Z,2.30
2023-05-03T07:01:04.415Z,2.00
2023-05-03T07:03:31.486Z,1.90
2023-05-03T07:05:59.160Z,2.60
2023-05-03T07:08:26.492Z,2.00
2023-05-03T07:10:53.490Z,2.00
2023-05-03T07:13:20.980Z,1.80
2023-05-03T07:15:48.072Z,1.80
2023-05-03T07:18:15.154Z,2.10
2023-05-03T07:20:42.238Z,1.90
2023-05-03T07:23:09.475Z,2.00
2023-05-03T07:25:36.494Z,2.10
2023-05-03T07:28:03.963Z,2.60
2023-05-03T07:30:31.004Z,2.10
2023-05-03T07:32:58.069Z,1.90
2023-05-03T07:35:26.920Z,2.20
2023-05-03T07:37:53.917Z,3.20
2023-05-03T07:40:20.971Z,1.40
2023-05-03T07:42:48.083Z,2.20
2023-05-03T07:45:15.064Z,1.70
2023-05-03T07:47:42.166Z,1.90
2023-05-03T07:50:09.559Z,1.70
2023-05-03T07:52:37.549Z,2.00
2023-05-03T07:55:05.489Z,1.80
2023-05-03T07:57:32.907Z,1.80
2023-05-03T07:59:59.940Z,1.80
2023-05-03T08:02:27.382Z,1.90
2023-05-03T08:04:55.452Z,1.70
2023-05-03T08:07:23.524Z,1.90
2023-05-03T08:09:53.753Z,1.90
2023-05-03T08:12:20.819Z,1.80
2023-05-03T08:14:47.831Z,2.90
2023-05-03T08:17:14.856Z,1.90
2023-05-03T08:19:42.699Z,2.10
2023-05-03T08:22:12.702Z,1.70
2023-05-03T08:24:39.736Z,2.90
2023-05-03T08:27:06.674Z,2.10
2023-05-03T08:29:37.149Z,1.70
2023-05-03T08:32:04.759Z,1.90
2023-05-03T08:34:32.138Z,2.50
2023-05-03T08:36:59.741Z,2.10
2023-05-03T08:39:27.050Z,2.20
2023-05-03T08:41:56.038Z,2.00
2023-05-03T08:44:23.543Z,1.80
2023-05-03T08:46:50.828Z,2.00
2023-05-03T08:49:18.165Z,2.00
2023-05-03T08:51:49.866Z,2.70
2023-05-03T08:54:18.340Z,1.80
2023-05-03T08:56:47.372Z,2.20
2023-05-03T08:59:16.559Z,1.90
2023-05-03T09:01:43.899Z,2.10
2023-05-03T09:04:11.681Z,1.80
2023-05-03T09:06:38.934Z,2.00
2023-05-03T09:09:09.970Z,1.90
2023-05-03T09:11:38.302Z,2.20
2023-05-03T09:14:09.581Z,2.70
2023-05-03T09:16:36.711Z,2.10
2023-05-03T09:19:05.130Z,2.10
2023-05-03T09:21:33.754Z,1.90
2023-05-03T09:24:01.817Z,2.60
2023-05-03T09:26:30.024Z,2.00
2023-05-03T09:28:58.881Z,2.10
2023-05-03T09:31:26.253Z,2.80
2023-05-03T09:33:53.698Z,1.90
2023-05-03T09:36:20.735Z,2.50
2023-05-03T09:38:47.795Z,2.20
2023-05-03T09:41:15.319Z,2.10
2023-05-03T09:43:52.653Z,1.80
2023-05-03T09:46:20.754Z,2.20
2023-05-03T09:48:49.592Z,2.20
2023-05-03T09:51:16.673Z,2.20
2023-05-03T09:53:43.608Z,2.50
2023-05-03T09:56:13.468Z,2.10
2023-05-03T09:58:41.078Z,2.60
2023-05-03T10:01:09.494Z,2.50
2023-05-03T10:03:41.842Z,2.40
2023-05-03T10:06:24.460Z,2.40
2023-05-03T10:11:39.496Z,2.50
2023-05-03T10:14:09.768Z,2.20
2023-05-03T10:16:38.815Z,2.70
2023-05-03T10:19:14.395Z,2.50
2023-05-03T10:22:06.852Z,2.40
2023-05-03T10:24:34.939Z,2.60
2023-05-03T10:27:02.165Z,2.70
2023-05-03T10:29:46.136Z,2.30
2023-05-03T10:32:44.607Z,2.30
2023-05-03T10:35:15.690Z,2.30
2023-05-03T10:37:43.036Z,2.70
2023-05-03T10:40:15.361Z,2.50
2023-05-03T10:42:46.885Z,2.90
2023-05-03T10:45:29.404Z,2.70
2023-05-03T10:50:39.903Z,2.50
2023-05-03T10:53:06.926Z,2.50
2023-05-03T10:55:34.189Z,2.40
2023-05-03T10:58:01.379Z,2.60
2023-05-03T11:00:41.490Z,2.40
2023-05-03T11:03:35.803Z,2.70
2023-05-03T11:06:04.220Z,2.70
2023-05-03T11:08:37.558Z,2.60
2023-05-03T11:11:09.974Z,3.20
2023-05-03T11:13:37.500Z,2.70
2023-05-03T11:16:07.957Z,2.90
2023-05-03T11:18:35.040Z,2.90
2023-05-03T11:21:02.210Z,2.80
2023-05-03T11:23:29.865Z,2.70
2023-05-03T11:25:58.240Z,2.80
2023-05-03T11:28:28.704Z,2.70
2023-05-03T11:30:56.029Z,3.20
2023-05-03T11:33:23.015Z,2.70
2023-05-03T11:35:50.519Z,2.50
2023-05-03T11:38:17.592Z,2.70
2023-05-03T11:40:44.644Z,2.60
2023-05-03T11:43:11.715Z,2.70
2023-05-03T11:45:44.285Z,2.90
2023-05-03T11:48:14.828Z,3.50
2023-05-03T11:50:56.000Z,3.20
2023-05-03T11:53:23.975Z,3.40
2023-05-03T11:55:53.457Z,3.50
2023-05-03T11:58:23.564Z,3.10
2023-05-03T12:00:51.493Z,3.20
2023-05-03T12:03:19.713Z,3.00
2023-05-03T12:05:48.764Z,3.40
2023-05-03T12:08:20.914Z,2.40
2023-05-03T12:13:38.743Z,2.90
2023-05-03T12:18:47.379Z,2.70
2023-05-03T12:23:46.631Z,2.60
2023-05-03T12:26:15.267Z,2.40
2023-05-03T12:28:42.512Z,2.70
2023-05-03T12:33:38.969Z,2.80
2023-05-03T12:36:09.786Z,2.70
2023-05-03T12:38:37.954Z,2.60
2023-05-03T12:41:08.794Z,2.50
2023-05-03T12:43:36.601Z,2.30
2023-05-03T12:48:34.029Z,2.50
2023-05-03T12:51:18.398Z,2.60
2023-05-03T12:53:54.795Z,2.80
2023-05-03T12:56:24.705Z,2.50
2023-05-03T12:59:15.120Z,2.70
2023-05-03T13:06:43.824Z,2.70
2023-05-03T13:09:19.308Z,2.90
2023-05-03T13:11:50.350Z,2.30
2023-05-03T13:14:18.295Z,2.70
2023-05-03T13:16:46.830Z,2.60
2023-05-03T13:19:13.910Z,2.40
2023-05-03T13:21:40.968Z,2.50
2023-05-03T13:24:08.067Z,2.50
2023-05-03T13:26:35.535Z,2.70
2023-05-03T13:29:03.377Z,2.50
2023-05-03T13:31:30.628Z,2.40
2023-05-03T13:33:57.689Z,2.70
2023-05-03T13:36:25.060Z,2.70
2023-05-03T13:38:52.243Z,2.50
2023-05-03T13:41:22.735Z,2.50
2023-05-03T13:43:49.887Z,2.60
2023-05-03T13:46:17.174Z,2.80
2023-05-03T13:48:44.272Z,2.30
2023-05-03T13:51:13.035Z,2.20
2023-05-03T13:53:40.165Z,2.50
2023-05-03T13:56:07.822Z,2.30
2023-05-03T13:58:36.369Z,2.50
2023-05-03T14:01:03.735Z,3.50
2023-05-03T14:03:32.018Z,14.20
2023-05-03T14:05:59.125Z,16.00
2023-05-03T14:08:26.240Z,5.40
2023-05-03T14:10:53.530Z,3.30
2023-05-03T14:13:20.583Z,5.50
2023-05-03T14:15:47.641Z,8.70
2023-05-03T14:18:14.829Z,11.30
2023-05-03T14:20:42.529Z,7.30
2023-05-03T14:23:09.821Z,3.90
2023-05-03T14:25:36.854Z,3.30
2023-05-03T14:28:05.429Z,3.20
2023-05-03T14:30:32.998Z,2.70
2023-05-03T14:33:00.480Z,2.80
2023-05-03T14:35:27.546Z,2.40
2023-05-03T14:37:55.640Z,2.90
2023-05-03T14:40:22.704Z,3.30
2023-05-03T14:42:50.166Z,2.90
2023-05-03T14:45:17.233Z,2.70
2023-05-03T14:47:44.246Z,2.70
2023-05-03T14:50:11.311Z,2.70
2023-05-03T14:52:38.396Z,2.50
2023-05-03T14:55:06.949Z,2.50
2023-05-03T14:57:34.247Z,2.30
2023-05-03T15:00:07.556Z,2.80
2023-05-03T15:02:35.056Z,2.60
2023-05-03T15:05:04.591Z,2.50
2023-05-03T15:07:31.907Z,2.70
2023-05-03T15:09:59.077Z,2.40
2023-05-03T15:12:26.928Z,2.60
2023-05-03T15:14:53.868Z,3.70
2023-05-03T15:17:21.092Z,3.80
2023-05-03T15:19:48.319Z,3.30
2023-05-03T15:22:15.303Z,3.30
2023-05-03T15:24:42.378Z,3.40
2023-05-03T15:27:09.383Z,3.60
2023-05-03T15:29:36.401Z,4.00
2023-05-03T15:32:03.741Z,4.00
2023-05-03T15:34:31.056Z,3.90
2023-05-03T15:36:58.126Z,4.90
2023-05-03T15:39:25.259Z,4.30
2023-05-03T15:41:52.358Z,4.10
2023-05-03T15:44:19.319Z,4.00
2023-05-03T15:46:46.469Z,4.40
2023-05-03T15:49:13.516Z,6.20
2023-05-03T15:51:40.583Z,8.60
2023-05-03T15:54:07.606Z,6.70
2023-05-03T15:56:34.529Z,5.70
2023-05-03T15:59:01.596Z,4.40
2023-05-03T16:01:29.223Z,4.10
2023-05-03T16:03:56.702Z,4.30
2023-05-03T16:06:23.636Z,4.40
2023-05-03T16:08:51.214Z,4.70
2023-05-03T16:11:18.241Z,4.70
2023-05-03T16:13:45.276Z,5.30
2023-05-03T16:16:12.440Z,5.10
2023-05-03T16:18:39.525Z,6.10
2023-05-03T16:21:06.611Z,6.20
2023-05-03T16:23:33.638Z,5.60
2023-05-03T16:26:01.209Z,5.80
2023-05-03T16:28:28.274Z,6.60
2023-05-03T16:30:55.276Z,6.30
2023-05-03T16:33:22.515Z,6.60
2023-05-03T16:35:50.118Z,5.90
2023-05-03T16:38:17.478Z,7.90
2023-05-03T16:40:46.187Z,9.00
2023-05-03T16:43:15.775Z,8.30
2023-05-03T16:45:43.060Z,7.70
2023-05-03T16:48:11.075Z,7.70
2023-05-03T16:50:40.615Z,7.60
2023-05-03T16:53:11.886Z,7.10
2023-05-03T16:55:38.898Z,7.10
2023-05-03T16:58:07.272Z,7.00
2023-05-03T17:00:34.415Z,7.30
2023-05-03T17:03:01.420Z,6.90
2023-05-03T17:05:33.247Z,7.80
2023-05-03T17:08:01.525Z,8.00
2023-05-03T17:10:29.095Z,7.20
2023-05-03T17:12:56.692Z,8.10
2023-05-03T17:15:23.698Z,7.40
2023-05-03T17:17:52.109Z,7.50
2023-05-03T17:20:19.771Z,7.10
2023-05-03T17:22:47.347Z,6.60
2023-05-03T17:25:14.506Z,6.70
2023-05-03T17:27:43.804Z,6.70
2023-05-03T17:30:11.686Z,7.30
2023-05-03T17:32:42.069Z,7.00
2023-05-03T17:35:11.488Z,6.60
2023-05-03T17:37:38.626Z,5.80
2023-05-03T17:40:09.110Z,6.20
2023-05-03T17:42:36.141Z,9.50
2023-05-03T17:45:04.360Z,8.00
2023-05-03T17:47:32.474Z,6.90
2023-05-03T17:49:59.532Z,9.10
2023-05-03T17:52:26.528Z,7.00
2023-05-03T17:54:53.955Z,7.30
2023-05-03T17:57:21.175Z,8.10
2023-05-03T17:59:48.697Z,7.70
2023-05-03T18:02:15.971Z,7.40
2023-05-03T18:04:42.982Z,7.20
2023-05-03T18:07:10.214Z,8.00
2023-05-03T18:09:38.300Z,8.00
2023-05-03T18:12:05.802Z,8.80
2023-05-03T18:14:36.263Z,7.80
2023-05-03T18:17:03.283Z,14.70
2023-05-03T18:19:30.471Z,7.60
2023-05-03T18:21:57.812Z,8.40
2023-05-03T18:24:24.985Z,7.60
2023-05-03T18:26:54.400Z,8.10
2023-05-03T18:29:25.558Z,7.90
2023-05-03T18:31:55.665Z,7.40
2023-05-03T18:34:22.953Z,6.40
2023-05-03T18:36:50.090Z,5.70
2023-05-03T18:39:17.433Z,5.10
2023-05-03T18:41:44.463Z,4.80
2023-05-03T18:44:11.492Z,4.80
2023-05-03T18:46:38.573Z,4.50
2023-05-03T18:49:06.393Z,5.30
2023-05-03T18:51:33.619Z,5.00
2023-05-03T18:54:00.652Z,5.90
2023-05-03T18:56:30.418Z,5.10
2023-05-03T18:58:57.397Z,4.70
2023-05-03T19:01:26.675Z,4.80
2023-05-03T19:03:54.297Z,4.80
2023-05-03T19:06:21.501Z,5.10
2023-05-03T19:08:49.771Z,5.30
2023-05-03T19:11:17.275Z,6.40
2023-05-03T19:13:47.580Z,6.10
2023-05-03T19:16:17.408Z,5.80
2023-05-03T19:18:45.613Z,5.20
2023-05-03T19:21:12.731Z,5.10
2023-05-03T19:23:43.844Z,4.70
2023-05-03T19:26:10.865Z,4.90
2023-05-03T19:28:37.916Z,4.70
2023-05-03T19:31:05.979Z,5.40
2023-05-03T19:33:33.092Z,4.60
2023-05-03T19:36:06.732Z,4.80
2023-05-03T19:38:36.587Z,5.00
2023-05-03T19:41:12.064Z,4.90
2023-05-03T19:43:39.794Z,5.00
2023-05-03T19:46:07.397Z,5.40
2023-05-03T19:48:34.623Z,4.60
2023-05-03T19:51:02.639Z,5.40
2023-05-03T19:53:30.035Z,5.50
2023-05-03T19:56:03.118Z,5.10
2023-05-03T19:58:31.964Z,5.80
2023-05-03T20:00:59.408Z,5.10
2023-05-03T20:03:27.599Z,5.20
2023-05-03T20:05:54.891Z,5.50
2023-05-03T20:08:22.768Z,5.50
2023-05-03T20:10:50.361Z,5.50
2023-05-03T20:13:17.536Z,5.20
2023-05-03T20:15:44.552Z,5.60
2023-05-03T20:18:11.535Z,5.00
2023-05-03T20:20:38.569Z,5.30
2023-05-03T20:23:05.592Z,5.10
2023-05-03T20:25:32.560Z,5.00
2023-05-03T20:27:59.488Z,4.90
2023-05-03T20:30:28.844Z,5.60
2023-05-03T20:32:55.924Z,5.10
2023-05-03T20:35:23.066Z,5.20
2023-05-03T20:37:50.079Z,4.90
2023-05-03T20:40:17.099Z,4.90
2023-05-03T20:42:44.043Z,4.70
2023-05-03T20:45:11.229Z,4.40
2023-05-03T20:47:38.151Z,4.50
2023-05-03T20:50:06.221Z,4.50
2023-05-03T20:52:33.412Z,4.80
2023-05-03T20:55:00.444Z,4.60
2023-05-03T20:57:27.985Z,4.80
2023-05-03T20:59:54.972Z,4.40
2023-05-03T21:02:22.113Z,4.50
2023-05-03T21:04:49.126Z,4.30
2023-05-03T21:07:16.150Z,4.60
2023-05-03T21:09:43.105Z,4.40
2023-05-03T21:12:10.206Z,4.80
2023-05-03T21:14:37.144Z,4.70
2023-05-03T21:17:04.505Z,4.90
2023-05-03T21:19:31.563Z,5.00
2023-05-03T21:21:58.552Z,4.70
2023-05-03T21:24:25.947Z,4.60
2023-05-03T21:26:52.901Z,4.70
2023-05-03T21:29:19.903Z,4.90
2023-05-03T21:32:11.947Z,4.60
2023-05-03T21:34:39.290Z,4.10
2023-05-03T21:37:06.269Z,4.50
2023-05-03T21:39:34.120Z,4.80
2023-05-03T21:42:01.102Z,4.80
2023-05-03T21:44:28.088Z,5.00
2023-05-03T21:46:55.226Z,4.90
2023-05-03T21:49:22.568Z,5.00
2023-05-03T21:51:50.243Z,4.60
2023-05-03T21:54:19.168Z,4.70
2023-05-03T21:56:46.184Z,4.40
2023-05-03T21:59:13.285Z,4.30
2023-05-03T22:01:40.470Z,4.60
2023-05-03T22:04:07.813Z,4.50
2023-05-03T22:06:34.912Z,4.30
2023-05-03T22:09:02.015Z,4.60
2023-05-03T22:11:29.240Z,4.80
2023-05-03T22:14:06.619Z,4.90
2023-05-03T22:16:35.317Z,4.60
2023-05-03T22:19:02.363Z,5.20
2023-05-03T22:21:29.380Z,5.00
2023-05-03T22:23:56.320Z,4.70
2023-05-03T22:26:24.416Z,4.80
2023-05-03T22:28:52.136Z,4.80
2023-05-03T22:31:19.110Z,4.90
2023-05-03T22:33:47.368Z,4.60
2023-05-03T22:36:14.751Z,4.70
2023-05-03T22:38:43.097Z,5.00
2023-05-03T22:41:10.514Z,4.30
2023-05-03T22:43:37.807Z,3.90
2023-05-03T22:46:04.939Z,4.50
2023-05-03T22:48:34.698Z,4.40
2023-05-03T22:51:01.646Z,4.20
2023-05-03T22:53:28.655Z,4.30
2023-05-03T22:55:58.027Z,4.40
2023-05-03T22:58:25.818Z,5.00
2023-05-03T23:00:53.226Z,4.70
2023-05-03T23:03:20.824Z,5.00
2023-05-03T23:05:48.296Z,5.40
2023-05-03T23:08:15.537Z,5.00
2023-05-03T23:10:42.529Z,5.00
2023-05-03T23:13:09.724Z,4.80
2023-05-03T23:15:37.092Z,4.60
2023-05-03T23:18:04.276Z,5.10
2023-05-03T23:20:31.275Z,5.30
2023-05-03T23:22:58.202Z,4.90
2023-05-03T23:25:25.523Z,5.20
2023-05-03T23:27:52.626Z,5.30
2023-05-03T23:30:20.084Z,5.60
2023-05-03T23:32:47.680Z,5.70
2023-05-03T23:35:16.049Z,6.20
2023-05-03T23:37:43.018Z,6.30
2023-05-03T23:40:10.238Z,6.00
2023-05-03T23:42:39.749Z,6.00
2023-05-03T23:45:08.715Z,5.40
2023-05-03T23:47:36.117Z,5.00
2023-05-03T23:50:03.253Z,5.50
2023-05-03T23:52:30.461Z,5.30
2023-05-03T23:54:57.473Z,5.80
2023-05-03T23:57:24.475Z,5.00
2023-05-03T23:59:51.788Z,4.90
